Home > Products > Valid Products > TAF

000
FTUS43 KUNR 241500 AAA
TAFGCC
TAF AMD
KGCC 241506Z 2415/2512 26015G25KT P6SM SCT080
     FM250100 22008KT P6SM SCT080=



000
FTUS43 KUNR 241100
TAFGCC
TAF
KGCC 241120Z 2412/2512 23012KT P6SM SKC
     FM241400 28015G25KT P6SM SCT080
     FM250100 22008KT P6SM SCT080=



000
FTUS43 KUNR 241100
TAFRAP
TAF
KRAP 241120Z 2412/2512 31010KT P6SM SKC
     FM241600 32018G28KT P6SM SCT100
     FM250100 VRB05KT P6SM SCT100=



000
FTUS43 KUNR 240500
TAFGCC
TAF
KGCC 240520Z 2406/2506 26010KT P6SM BKN200
     FM241400 28019G29KT P6SM SCT150=



000
FTUS43 KUNR 240500
TAFRAP
TAF
KRAP 240520Z 2406/2506 34010KT P6SM BKN150
     FM241600 31020G30KT P6SM SCT150=



000
FTUS43 KUNR 240000 AAA
TAFRAP
TAF AMD
KRAP 240010Z 2400/2424 35018G30KT P6SM SCT080
     FM240200 33010KT P6SM SCT150
     FM241500 31020G30KT P6SM SCT150=



000
FTUS43 KUNR 232300
TAFGCC
TAF
KGCC 232320Z 2400/2424 34012KT P6SM SCT060 SCT120
     FM241200 26019G29KT P6SM SCT150=



000
FTUS43 KUNR 232300
TAFRAP
TAF
KRAP 232320Z 2400/2424 33010KT P6SM SCT150
     FM241500 31020G30KT P6SM SCT150=



000
FTUS43 KUNR 232200 AAB
TAFGCC
TAF AMD
KGCC 232220Z 2322/2418 33012KT P6SM SCT060 SCT120
     FM241200 26019G29KT P6SM BKN250=



000
FTUS43 KUNR 232000 AAA
TAFRAP
TAF AMD
KRAP 232003Z 2320/2418 33028G38KT P6SM BKN100
     FM240200 30010KT P6SM SCT150
     FM241500 30020G30KT P6SM SCT250=



000
FTUS43 KUNR 231800 AAA
TAFGCC
TAF AMD
KGCC 231848Z 2319/2418 31022G32KT P6SM SCT015 BKN050
      TEMPO 2319/2322 BKN015
     FM240000 30008KT P6SM SCT120
     FM241200 26019G29KT P6SM BKN250=



000
FTUS43 KUNR 231700
TAFRAP
TAF
KRAP 231736Z 2318/2418 33023G33KT P6SM BKN100
     FM240200 30010KT P6SM SCT150
     FM241500 30020G30KT P6SM SCT250=



000
FTUS43 KUNR 231700
TAFGCC
TAF
KGCC 231736Z 2318/2418 31022G32KT P6SM BKN050
      TEMPO 2318/2320 BKN020
     FM240000 30008KT P6SM SCT120
     FM241200 26019G29KT P6SM BKN250=



000
FTUS43 KUNR 231600 AAA
TAFRAP
TAF AMD
KRAP 231601Z 2316/2412 36009KT P6SM BKN120
     FM231800 33026G38KT P6SM BKN060
     FM240000 34010KT P6SM SCT150=



000
FTUS43 KUNR 231100
TAFRAP
TAF
KRAP 231120Z 2312/2412 19011KT P6SM BKN120 WS010/22035KT
     FM231500 33026G38KT P6SM BKN060
     FM240000 34010KT P6SM SCT150=



000
FTUS43 KUNR 231100
TAFGCC
TAF
KGCC 231120Z 2312/2412 31022G32KT P6SM BKN050
     FM232300 33014KT P6SM SCT120
     FM240400 24012KT P6SM SCT120=



000
FTUS43 KUNR 230500
TAFGCC
TAF
KGCC 230520Z 2306/2406 16014KT P6SM BKN120
     FM230800 24015G25KT P6SM BKN100
     FM231200 31024G34KT P6SM BKN050
     FM232300 33015KT P6SM SCT100=



000
FTUS43 KUNR 230500
TAFRAP
TAF
KRAP 230520Z 2306/2406 17010KT P6SM BKN120
     FM230900 21010KT P6SM BKN100
     FM231400 32028G40KT P6SM BKN070 OVC150
     FM240000 34010KT P6SM SCT150=



000
FTUS43 KUNR 230200 AAA
TAFGCC
TAF AMD
KGCC 230246Z 2303/2324 17014KT P6SM BKN120
     FM230600 24015G25KT P6SM BKN100
     FM231200 31024G34KT P6SM BKN050=



000
FTUS43 KUNR 222300 CCA
TAFGCC
TAF COR
KGCC 222358Z 2300/2324 17014KT P6SM BKN120
      TEMPO 2300/2303 3SM TSRA BKN040CB BKN100
     FM230500 24015G25KT P6SM BKN100
     FM231200 31024G34KT P6SM BKN050=



000
FTUS43 KUNR 222300
TAFGCC
TAF
KGCC 222320Z 2300/2324 17014KT P6SM BKN120
     FM230500 24015G25KT P6SM BKN100
     FM231200 31024G34KT P6SM BKN050=



000
FTUS43 KUNR 222300
TAFRAP
TAF
KRAP 222320Z 2300/2324 18017KT P6SM SCT110 BKN200
     FM230100 17010KT P6SM VCTS BKN070CB BKN120
     FM230400 21010KT P6SM BKN100
     FM231400 32025G35KT P6SM BKN070 OVC150=



000
FTUS43 KUNR 222100 AAA
TAFRAP
TAF AMD
KRAP 222126Z 2221/2318 16015G20KT P6SM SCT110 BKN200
     FM222300 24013KT P6SM BKN100
     FM230100 15010KT P6SM BKN150
     FM231400 32025G35KT P6SM OVC150=



000
FTUS43 KUNR 221700
TAFRAP
TAF
KRAP 221720Z 2218/2318 16014KT P6SM SCT110 BKN250
     FM222100 24013KT P6SM SCT100 BKN200
     FM230100 15010KT P6SM BKN150
     FM231400 32025G35KT P6SM OVC150=



000
FTUS43 KUNR 221700
TAFGCC
TAF
KGCC 221720Z 2218/2318 15013KT P6SM SCT110 BKN250
     FM222000 21015G25KT P6SM SCT090 BKN250
     FM230200 17014KT P6SM BKN250
     FM230900 24015G25KT P6SM SCT150
     FM231200 31022G32KT P6SM BKN050=



000
FTUS43 KUNR 221600 AAA
TAFRAP
TAF AMD
KRAP 221639Z 2217/2312 16014KT P6SM BKN250
     FM230100 15009KT P6SM BKN150=



000
FTUS43 KUNR 221500 AAA
TAFGCC
TAF AMD
KGCC 221518Z 2215/2312 17012KT P6SM BKN250
     FM221900 18012G22KT P6SM SCT100 BKN250
     FM230100 17010KT P6SM BKN200
     FM230700 21022G32KT P6SM BKN150=



000
FTUS43 KUNR 221100
TAFRAP
TAF
KRAP 221120Z 2212/2312 14008KT P6SM SCT150
     FM221600 17016G26KT P6SM BKN150
     FM230100 15009KT P6SM BKN150=



000
FTUS43 KUNR 221100
TAFGCC
TAF
KGCC 221120Z 2212/2312 19015KT P6SM BKN120=



000
FTUS43 KUNR 220500
TAFRAP
TAF
KRAP 220520Z 2206/2306 12008KT P6SM SCT250
     FM221600 17018KT P6SM BKN150=



000
FTUS43 KUNR 220500
TAFGCC
TAF
KGCC 220520Z 2206/2306 19015KT P6SM BKN150=



000
FTUS43 KUNR 212300
TAFRAP
TAF
KRAP 212320Z 2200/2224 12008KT P6SM SCT250
     FM221500 17018KT P6SM BKN150=



000
FTUS43 KUNR 212300
TAFGCC
TAF
KGCC 212320Z 2200/2224 17015KT P6SM BKN250
     FM221700 22015KT P6SM BKN100=



000
FTUS43 KUNR 211700
TAFRAP
TAF
KRAP 211720Z 2118/2218 36010KT P6SM SKC
     FM212200 04008KT P6SM SKC
     FM220100 11006KT P6SM SKC
     FM220600 15011KT P6SM SCT250
     FM221500 17018KT P6SM BKN150=



000
FTUS43 KUNR 211700
TAFGCC
TAF
KGCC 211720Z 2118/2218 18009KT P6SM SKC
     FM220000 14007KT P6SM SKC
     FM220500 17011KT P6SM SKC
     FM221700 22015KT P6SM BKN100=



    US Dept of Commerce
    National Oceanic and Atmospheric Administration
    National Weather Service
    1325 East West Highway
    Silver Spring, MD 20910
    Page Author: NWS Internet Services Team
Disclaimer
Information Quality
Credits
Glossary
Privacy Policy
Freedom of Information Act (FOIA)
About Us
Career Opportunities